sensor_id;sensor_type;location;lat;lon;timestamp;temperature;humidity
59007;DHT22;44792;52.760;6.726;2022-12-16T00:00:22;0.30;99.90
59007;DHT22;44792;52.760;6.726;2022-12-16T00:02:51;0.30;99.90
59007;DHT22;44792;52.760;6.726;2022-12-16T00:05:18;0.30;99.90
59007;DHT22;44792;52.760;6.726;2022-12-16T00:07:45;0.30;99.90
59007;DHT22;44792;52.760;6.726;2022-12-16T00:10:11;0.30;99.90
59007;DHT22;44792;52.760;6.726;2022-12-16T00:12:37;0.30;99.90
59007;DHT22;44792;52.760;6.726;2022-12-16T00:15:03;0.30;99.90
59007;DHT22;44792;52.760;6.726;2022-12-16T00:17:28;0.30;99.90
59007;DHT22;44792;52.760;6.726;2022-12-16T00:19:54;0.40;99.90
59007;DHT22;44792;52.760;6.726;2022-12-16T00:22:20;0.40;99.90
59007;DHT22;44792;52.760;6.726;2022-12-16T00:24:45;0.40;99.90
59007;DHT22;44792;52.760;6.726;2022-12-16T00:27:11;0.40;99.90
59007;DHT22;44792;52.760;6.726;2022-12-16T00:29:36;0.30;99.90
59007;DHT22;44792;52.760;6.726;2022-12-16T00:32:02;0.50;99.90
59007;DHT22;44792;52.760;6.726;2022-12-16T00:34:28;0.30;99.90
59007;DHT22;44792;52.760;6.726;2022-12-16T00:36:53;0.40;99.90
59007;DHT22;44792;52.760;6.726;2022-12-16T00:39:19;0.40;99.90
59007;DHT22;44792;52.760;6.726;2022-12-16T00:41:45;0.30;99.90
59007;DHT22;44792;52.760;6.726;2022-12-16T00:44:12;0.40;99.90
59007;DHT22;44792;52.760;6.726;2022-12-16T00:46:38;0.30;99.90
59007;DHT22;44792;52.760;6.726;2022-12-16T00:49:04;0.40;99.90
59007;DHT22;44792;52.760;6.726;2022-12-16T00:51:30;0.40;99.90
59007;DHT22;44792;52.760;6.726;2022-12-16T00:53:55;0.40;99.90
59007;DHT22;44792;52.760;6.726;2022-12-16T00:56:21;0.40;99.90
59007;DHT22;44792;52.760;6.726;2022-12-16T00:58:46;0.50;99.90
59007;DHT22;44792;52.760;6.726;2022-12-16T01:01:12;0.50;99.90
59007;DHT22;44792;52.760;6.726;2022-12-16T01:03:38;0.50;99.90
59007;DHT22;44792;52.760;6.726;2022-12-16T01:06:12;0.50;99.90
59007;DHT22;44792;52.760;6.726;2022-12-16T01:08:38;0.50;99.90
59007;DHT22;44792;52.760;6.726;2022-12-16T01:11:04;0.50;99.90
59007;DHT22;44792;52.760;6.726;2022-12-16T01:13:30;0.50;99.90
59007;DHT22;44792;52.760;6.726;2022-12-16T01:15:59;0.50;99.90
59007;DHT22;44792;52.760;6.726;2022-12-16T01:18:24;0.50;99.90
59007;DHT22;44792;52.760;6.726;2022-12-16T01:20:50;0.50;99.90
59007;DHT22;44792;52.760;6.726;2022-12-16T01:23:15;0.50;99.90
59007;DHT22;44792;52.760;6.726;2022-12-16T01:25:41;0.50;99.90
59007;DHT22;44792;52.760;6.726;2022-12-16T01:28:06;0.50;99.90
59007;DHT22;44792;52.760;6.726;2022-12-16T01:30:32;0.50;99.90
59007;DHT22;44792;52.760;6.726;2022-12-16T01:32:58;0.40;99.90
59007;DHT22;44792;52.760;6.726;2022-12-16T01:35:23;0.40;99.90
59007;DHT22;44792;52.760;6.726;2022-12-16T01:37:49;0.40;99.90
59007;DHT22;44792;52.760;6.726;2022-12-16T01:40:20;0.40;99.90
59007;DHT22;44792;52.760;6.726;2022-12-16T01:42:46;0.40;99.90
59007;DHT22;44792;52.760;6.726;2022-12-16T01:45:33;0.50;99.90
59007;DHT22;44792;52.760;6.726;2022-12-16T01:48:53;0.50;99.90
59007;DHT22;44792;52.760;6.726;2022-12-16T01:51:04;0.50;99.90
59007;DHT22;44792;52.760;6.726;2022-12-16T01:53:31;0.50;99.90
59007;DHT22;44792;52.760;6.726;2022-12-16T01:55:58;0.60;99.90
59007;DHT22;44792;52.760;6.726;2022-12-16T01:58:27;0.50;99.90
59007;DHT22;44792;52.760;6.726;2022-12-16T02:00:54;0.50;99.90
59007;DHT22;44792;52.760;6.726;2022-12-16T02:03:19;0.50;99.90
59007;DHT22;44792;52.760;6.726;2022-12-16T02:05:45;0.50;99.90
59007;DHT22;44792;52.760;6.726;2022-12-16T02:08:16;0.50;99.90
59007;DHT22;44792;52.760;6.726;2022-12-16T02:18:54;0.50;99.90
59007;DHT22;44792;52.760;6.726;2022-12-16T02:24:51;0.40;99.90
59007;DHT22;44792;52.760;6.726;2022-12-16T02:35:04;0.40;99.90
59007;DHT22;44792;52.760;6.726;2022-12-16T02:37:54;0.50;99.90
59007;DHT22;44792;52.760;6.726;2022-12-16T02:43:16;0.40;99.90
59007;DHT22;44792;52.760;6.726;2022-12-16T02:45:44;0.40;99.90
59007;DHT22;44792;52.760;6.726;2022-12-16T02:48:11;0.40;99.90
59007;DHT22;44792;52.760;6.726;2022-12-16T02:50:44;0.40;99.90
59007;DHT22;44792;52.760;6.726;2022-12-16T02:53:11;0.50;99.90
59007;DHT22;44792;52.760;6.726;2022-12-16T02:55:49;0.40;99.90
59007;DHT22;44792;52.760;6.726;2022-12-16T02:58:31;0.40;99.90
59007;DHT22;44792;52.760;6.726;2022-12-16T03:03:44;0.50;99.90
59007;DHT22;44792;52.760;6.726;2022-12-16T03:06:13;0.40;99.90
59007;DHT22;44792;52.760;6.726;2022-12-16T03:08:44;0.40;99.90
59007;DHT22;44792;52.760;6.726;2022-12-16T03:11:12;0.50;99.90
59007;DHT22;44792;52.760;6.726;2022-12-16T03:13:42;0.50;99.90
59007;DHT22;44792;52.760;6.726;2022-12-16T03:16:11;0.50;99.90
59007;DHT22;44792;52.760;6.726;2022-12-16T03:18:40;0.50;99.90
59007;DHT22;44792;52.760;6.726;2022-12-16T03:21:08;0.50;99.90
59007;DHT22;44792;52.760;6.726;2022-12-16T03:23:47;0.50;99.90
59007;DHT22;44792;52.760;6.726;2022-12-16T03:26:31;0.60;99.90
59007;DHT22;44792;52.760;6.726;2022-12-16T03:29:15;0.50;99.90
59007;DHT22;44792;52.760;6.726;2022-12-16T03:31:56;0.50;99.90
59007;DHT22;44792;52.760;6.726;2022-12-16T03:34:34;0.50;99.90
59007;DHT22;44792;52.760;6.726;2022-12-16T03:37:07;0.50;99.90
59007;DHT22;44792;52.760;6.726;2022-12-16T03:39:37;0.40;99.90
59007;DHT22;44792;52.760;6.726;2022-12-16T03:42:04;0.50;99.90
59007;DHT22;44792;52.760;6.726;2022-12-16T03:44:30;0.50;99.90
59007;DHT22;44792;52.760;6.726;2022-12-16T03:46:57;0.50;99.90
59007;DHT22;44792;52.760;6.726;2022-12-16T03:49:22;0.50;99.90
59007;DHT22;44792;52.760;6.726;2022-12-16T03:51:48;0.50;99.90
59007;DHT22;44792;52.760;6.726;2022-12-16T03:54:14;0.50;99.90
59007;DHT22;44792;52.760;6.726;2022-12-16T03:56:39;0.50;99.90
59007;DHT22;44792;52.760;6.726;2022-12-16T03:59:05;0.50;99.90
59007;DHT22;44792;52.760;6.726;2022-12-16T04:01:30;0.50;99.90
59007;DHT22;44792;52.760;6.726;2022-12-16T04:03:56;0.50;99.90
59007;DHT22;44792;52.760;6.726;2022-12-16T04:06:21;0.50;99.90
59007;DHT22;44792;52.760;6.726;2022-12-16T04:08:47;0.50;99.90
59007;DHT22;44792;52.760;6.726;2022-12-16T04:11:14;0.40;99.90
59007;DHT22;44792;52.760;6.726;2022-12-16T04:13:58;0.50;99.90
59007;DHT22;44792;52.760;6.726;2022-12-16T04:16:42;0.40;99.90
59007;DHT22;44792;52.760;6.726;2022-12-16T04:19:33;0.40;99.90
59007;DHT22;44792;52.760;6.726;2022-12-16T04:22:28;0.50;99.90
59007;DHT22;44792;52.760;6.726;2022-12-16T04:25:22;0.50;99.90
59007;DHT22;44792;52.760;6.726;2022-12-16T04:27:49;0.50;99.90
59007;DHT22;44792;52.760;6.726;2022-12-16T04:30:19;0.50;99.90
59007;DHT22;44792;52.760;6.726;2022-12-16T04:33:00;0.60;99.90
59007;DHT22;44792;52.760;6.726;2022-12-16T04:35:44;0.60;99.90
59007;DHT22;44792;52.760;6.726;2022-12-16T04:38:29;0.60;99.90
59007;DHT22;44792;52.760;6.726;2022-12-16T04:41:13;0.60;99.90
59007;DHT22;44792;52.760;6.726;2022-12-16T04:43:57;0.60;99.90
59007;DHT22;44792;52.760;6.726;2022-12-16T04:46:41;0.70;99.90
59007;DHT22;44792;52.760;6.726;2022-12-16T04:49:26;0.60;99.90
59007;DHT22;44792;52.760;6.726;2022-12-16T04:52:10;0.70;99.90
59007;DHT22;44792;52.760;6.726;2022-12-16T04:54:55;0.60;99.90
59007;DHT22;44792;52.760;6.726;2022-12-16T04:57:39;0.70;99.90
59007;DHT22;44792;52.760;6.726;2022-12-16T05:00:23;0.70;99.90
59007;DHT22;44792;52.760;6.726;2022-12-16T05:03:08;0.70;99.90
59007;DHT22;44792;52.760;6.726;2022-12-16T05:05:52;0.70;99.90
59007;DHT22;44792;52.760;6.726;2022-12-16T05:08:36;0.80;99.90
59007;DHT22;44792;52.760;6.726;2022-12-16T05:11:20;0.70;99.90
59007;DHT22;44792;52.760;6.726;2022-12-16T05:14:04;0.80;99.90
59007;DHT22;44792;52.760;6.726;2022-12-16T05:16:48;0.80;99.90
59007;DHT22;44792;52.760;6.726;2022-12-16T05:19:32;0.80;99.90
59007;DHT22;44792;52.760;6.726;2022-12-16T05:22:17;0.90;99.90
59007;DHT22;44792;52.760;6.726;2022-12-16T05:25:01;0.90;99.90
59007;DHT22;44792;52.760;6.726;2022-12-16T05:27:52;0.90;99.90
59007;DHT22;44792;52.760;6.726;2022-12-16T05:30:36;0.90;99.90
59007;DHT22;44792;52.760;6.726;2022-12-16T05:33:20;0.90;99.90
59007;DHT22;44792;52.760;6.726;2022-12-16T05:36:04;0.90;99.90
59007;DHT22;44792;52.760;6.726;2022-12-16T05:38:49;1.00;99.90
59007;DHT22;44792;52.760;6.726;2022-12-16T05:41:33;1.00;99.90
59007;DHT22;44792;52.760;6.726;2022-12-16T05:44:17;1.00;99.90
59007;DHT22;44792;52.760;6.726;2022-12-16T05:47:02;1.00;99.90
59007;DHT22;44792;52.760;6.726;2022-12-16T05:49:45;1.10;99.90
59007;DHT22;44792;52.760;6.726;2022-12-16T05:52:30;1.10;99.90
59007;DHT22;44792;52.760;6.726;2022-12-16T05:55:14;1.10;99.90
59007;DHT22;44792;52.760;6.726;2022-12-16T05:57:58;1.10;99.90
59007;DHT22;44792;52.760;6.726;2022-12-16T06:00:42;1.10;99.90
59007;DHT22;44792;52.760;6.726;2022-12-16T06:03:26;1.10;99.90
59007;DHT22;44792;52.760;6.726;2022-12-16T06:06:11;1.20;99.90
59007;DHT22;44792;52.760;6.726;2022-12-16T06:08:55;1.20;99.90
59007;DHT22;44792;52.760;6.726;2022-12-16T06:11:39;1.20;99.90
59007;DHT22;44792;52.760;6.726;2022-12-16T06:14:23;1.30;99.90
59007;DHT22;44792;52.760;6.726;2022-12-16T06:17:07;1.30;99.90
59007;DHT22;44792;52.760;6.726;2022-12-16T06:19:51;1.30;99.90
59007;DHT22;44792;52.760;6.726;2022-12-16T06:22:35;1.20;99.90
59007;DHT22;44792;52.760;6.726;2022-12-16T06:25:20;1.30;99.90
59007;DHT22;44792;52.760;6.726;2022-12-16T06:28:04;1.20;99.90
59007;DHT22;44792;52.760;6.726;2022-12-16T06:30:48;1.30;99.90
59007;DHT22;44792;52.760;6.726;2022-12-16T06:33:32;1.30;99.90
59007;DHT22;44792;52.760;6.726;2022-12-16T06:36:16;1.30;99.90
59007;DHT22;44792;52.760;6.726;2022-12-16T06:39:00;1.30;99.90
59007;DHT22;44792;52.760;6.726;2022-12-16T06:41:45;1.30;99.90
59007;DHT22;44792;52.760;6.726;2022-12-16T06:44:29;1.30;99.90
59007;DHT22;44792;52.760;6.726;2022-12-16T06:47:13;1.30;99.90
59007;DHT22;44792;52.760;6.726;2022-12-16T06:49:57;1.30;99.90
59007;DHT22;44792;52.760;6.726;2022-12-16T06:52:42;1.40;99.90
59007;DHT22;44792;52.760;6.726;2022-12-16T06:55:26;1.30;99.90
59007;DHT22;44792;52.760;6.726;2022-12-16T06:58:10;1.40;99.90
59007;DHT22;44792;52.760;6.726;2022-12-16T07:00:54;1.40;99.90
59007;DHT22;44792;52.760;6.726;2022-12-16T07:03:39;1.40;99.90
59007;DHT22;44792;52.760;6.726;2022-12-16T07:06:23;1.40;99.90
59007;DHT22;44792;52.760;6.726;2022-12-16T07:09:07;1.50;99.90
59007;DHT22;44792;52.760;6.726;2022-12-16T07:11:51;1.50;99.90
59007;DHT22;44792;52.760;6.726;2022-12-16T07:14:35;1.50;99.90
59007;DHT22;44792;52.760;6.726;2022-12-16T07:17:20;1.50;99.90
59007;DHT22;44792;52.760;6.726;2022-12-16T07:20:04;1.50;99.90
59007;DHT22;44792;52.760;6.726;2022-12-16T07:22:49;1.50;99.90
59007;DHT22;44792;52.760;6.726;2022-12-16T07:25:33;1.50;99.90
59007;DHT22;44792;52.760;6.726;2022-12-16T07:28:17;1.50;99.90
59007;DHT22;44792;52.760;6.726;2022-12-16T07:31:02;1.50;99.90
59007;DHT22;44792;52.760;6.726;2022-12-16T07:33:46;1.50;99.90
59007;DHT22;44792;52.760;6.726;2022-12-16T07:36:30;1.50;99.90
59007;DHT22;44792;52.760;6.726;2022-12-16T07:39:15;1.50;99.90
59007;DHT22;44792;52.760;6.726;2022-12-16T07:41:59;1.50;99.90
59007;DHT22;44792;52.760;6.726;2022-12-16T07:44:43;1.50;99.90
59007;DHT22;44792;52.760;6.726;2022-12-16T07:47:27;1.50;99.90
59007;DHT22;44792;52.760;6.726;2022-12-16T07:50:11;1.50;99.90
59007;DHT22;44792;52.760;6.726;2022-12-16T07:52:57;1.50;99.90
59007;DHT22;44792;52.760;6.726;2022-12-16T07:55:41;1.60;99.90
59007;DHT22;44792;52.760;6.726;2022-12-16T07:58:26;1.60;99.90
59007;DHT22;44792;52.760;6.726;2022-12-16T08:01:16;1.50;99.90
59007;DHT22;44792;52.760;6.726;2022-12-16T08:04:00;1.60;99.90
59007;DHT22;44792;52.760;6.726;2022-12-16T08:06:44;1.60;99.90
59007;DHT22;44792;52.760;6.726;2022-12-16T08:09:29;1.60;99.90
59007;DHT22;44792;52.760;6.726;2022-12-16T08:12:13;1.60;99.90
59007;DHT22;44792;52.760;6.726;2022-12-16T08:14:57;1.60;99.90
59007;DHT22;44792;52.760;6.726;2022-12-16T08:17:47;1.60;99.90
59007;DHT22;44792;52.760;6.726;2022-12-16T08:20:32;1.60;99.90
59007;DHT22;44792;52.760;6.726;2022-12-16T08:23:16;1.60;99.90
59007;DHT22;44792;52.760;6.726;2022-12-16T08:26:00;1.50;99.90
59007;DHT22;44792;52.760;6.726;2022-12-16T08:28:44;1.30;99.90
59007;DHT22;44792;52.760;6.726;2022-12-16T08:31:29;1.20;99.90
59007;DHT22;44792;52.760;6.726;2022-12-16T08:34:13;1.10;99.90
59007;DHT22;44792;52.760;6.726;2022-12-16T08:36:57;1.10;99.90
59007;DHT22;44792;52.760;6.726;2022-12-16T08:39:41;1.00;99.90
59007;DHT22;44792;52.760;6.726;2022-12-16T08:42:26;1.00;99.90
59007;DHT22;44792;52.760;6.726;2022-12-16T08:45:11;1.10;99.90
59007;DHT22;44792;52.760;6.726;2022-12-16T08:48:15;1.20;99.90
59007;DHT22;44792;52.760;6.726;2022-12-16T08:51:20;1.00;99.90
59007;DHT22;44792;52.760;6.726;2022-12-16T08:54:04;1.00;99.90
59007;DHT22;44792;52.760;6.726;2022-12-16T08:56:48;1.00;99.90
59007;DHT22;44792;52.760;6.726;2022-12-16T08:59:37;0.90;99.90
59007;DHT22;44792;52.760;6.726;2022-12-16T09:02:21;0.90;99.90
59007;DHT22;44792;52.760;6.726;2022-12-16T09:05:05;0.90;99.90
59007;DHT22;44792;52.760;6.726;2022-12-16T09:07:49;0.90;99.90
59007;DHT22;44792;52.760;6.726;2022-12-16T09:10:33;1.00;99.90
59007;DHT22;44792;52.760;6.726;2022-12-16T09:13:17;0.90;99.90
59007;DHT22;44792;52.760;6.726;2022-12-16T09:16:01;0.90;99.90
59007;DHT22;44792;52.760;6.726;2022-12-16T09:18:46;0.90;99.90
59007;DHT22;44792;52.760;6.726;2022-12-16T09:21:30;0.90;99.90
59007;DHT22;44792;52.760;6.726;2022-12-16T09:24:14;0.90;99.90
59007;DHT22;44792;52.760;6.726;2022-12-16T09:26:58;0.90;99.90
59007;DHT22;44792;52.760;6.726;2022-12-16T09:29:43;0.90;99.90
59007;DHT22;44792;52.760;6.726;2022-12-16T09:32:27;0.90;99.90
59007;DHT22;44792;52.760;6.726;2022-12-16T09:35:11;0.90;99.90
59007;DHT22;44792;52.760;6.726;2022-12-16T09:37:56;0.90;99.90
59007;DHT22;44792;52.760;6.726;2022-12-16T09:40:41;0.90;99.90
59007;DHT22;44792;52.760;6.726;2022-12-16T09:43:59;0.90;99.90
59007;DHT22;44792;52.760;6.726;2022-12-16T09:49:55;1.00;99.90
59007;DHT22;44792;52.760;6.726;2022-12-16T09:52:51;1.00;99.90
59007;DHT22;44792;52.760;6.726;2022-12-16T09:55:39;0.90;99.90
59007;DHT22;44792;52.760;6.726;2022-12-16T09:58:29;0.90;99.90
59007;DHT22;44792;52.760;6.726;2022-12-16T10:01:15;0.90;99.90
59007;DHT22;44792;52.760;6.726;2022-12-16T10:04:00;0.90;99.90
59007;DHT22;44792;52.760;6.726;2022-12-16T10:06:47;1.00;99.90
59007;DHT22;44792;52.760;6.726;2022-12-16T10:12:52;1.00;99.90
59007;DHT22;44792;52.760;6.726;2022-12-16T10:18:48;0.90;99.90
59007;DHT22;44792;52.760;6.726;2022-12-16T10:21:45;0.90;99.90
59007;DHT22;44792;52.760;6.726;2022-12-16T10:24:52;0.90;99.90
59007;DHT22;44792;52.760;6.726;2022-12-16T10:27:46;0.90;99.90
59007;DHT22;44792;52.760;6.726;2022-12-16T10:30:33;0.90;99.90
59007;DHT22;44792;52.760;6.726;2022-12-16T10:33:19;0.90;99.90
59007;DHT22;44792;52.760;6.726;2022-12-16T10:36:04;0.80;99.90
59007;DHT22;44792;52.760;6.726;2022-12-16T10:38:52;0.80;99.90
59007;DHT22;44792;52.760;6.726;2022-12-16T10:41:41;0.80;99.90
59007;DHT22;44792;52.760;6.726;2022-12-16T10:44:49;0.80;99.90
59007;DHT22;44792;52.760;6.726;2022-12-16T10:47:35;0.80;99.90
59007;DHT22;44792;52.760;6.726;2022-12-16T10:50:19;0.80;99.90
59007;DHT22;44792;52.760;6.726;2022-12-16T10:53:14;0.80;99.90
59007;DHT22;44792;52.760;6.726;2022-12-16T10:58:54;0.80;99.90
59007;DHT22;44792;52.760;6.726;2022-12-16T11:01:38;0.80;99.90
59007;DHT22;44792;52.760;6.726;2022-12-16T11:04:34;0.80;99.90
59007;DHT22;44792;52.760;6.726;2022-12-16T11:07:38;0.80;99.90
59007;DHT22;44792;52.760;6.726;2022-12-16T11:13:25;0.90;99.90
59007;DHT22;44792;52.760;6.726;2022-12-16T11:16:26;0.90;99.90
59007;DHT22;44792;52.760;6.726;2022-12-16T11:19:25;0.80;99.90
59007;DHT22;44792;52.760;6.726;2022-12-16T11:22:21;0.80;99.90
59007;DHT22;44792;52.760;6.726;2022-12-16T11:28:14;0.90;99.90
59007;DHT22;44792;52.760;6.726;2022-12-16T11:31:18;0.80;99.90
59007;DHT22;44792;52.760;6.726;2022-12-16T11:34:03;0.90;99.90
59007;DHT22;44792;52.760;6.726;2022-12-16T11:36:48;0.90;99.90
59007;DHT22;44792;52.760;6.726;2022-12-16T11:39:34;0.90;99.90
59007;DHT22;44792;52.760;6.726;2022-12-16T11:42:21;0.80;99.90
59007;DHT22;44792;52.760;6.726;2022-12-16T11:45:13;0.90;99.90
59007;DHT22;44792;52.760;6.726;2022-12-16T11:48:22;0.80;99.90
59007;DHT22;44792;52.760;6.726;2022-12-16T11:51:11;0.90;99.90
59007;DHT22;44792;52.760;6.726;2022-12-16T11:54:07;0.90;99.90
59007;DHT22;44792;52.760;6.726;2022-12-16T11:56:53;0.90;99.90
59007;DHT22;44792;52.760;6.726;2022-12-16T12:05:40;1.00;99.90
59007;DHT22;44792;52.760;6.726;2022-12-16T12:08:50;1.00;99.90
59007;DHT22;44792;52.760;6.726;2022-12-16T12:11:44;1.10;99.90
59007;DHT22;44792;52.760;6.726;2022-12-16T12:14:40;1.00;99.90
59007;DHT22;44792;52.760;6.726;2022-12-16T12:17:41;1.00;99.90
59007;DHT22;44792;52.760;6.726;2022-12-16T12:20:41;1.10;99.90
59007;DHT22;44792;52.760;6.726;2022-12-16T12:23:43;1.10;99.90
59007;DHT22;44792;52.760;6.726;2022-12-16T12:26:32;1.10;99.90
59007;DHT22;44792;52.760;6.726;2022-12-16T12:29:56;1.10;99.90
59007;DHT22;44792;52.760;6.726;2022-12-16T12:39:02;1.20;99.90
59007;DHT22;44792;52.760;6.726;2022-12-16T12:48:42;1.10;99.90
59007;DHT22;44792;52.760;6.726;2022-12-16T12:55:09;1.10;99.90
59007;DHT22;44792;52.760;6.726;2022-12-16T12:57:56;1.20;99.90
59007;DHT22;44792;52.760;6.726;2022-12-16T13:00:46;1.30;99.90
59007;DHT22;44792;52.760;6.726;2022-12-16T13:06:18;1.10;99.90
59007;DHT22;44792;52.760;6.726;2022-12-16T13:09:03;1.10;99.90
59007;DHT22;44792;52.760;6.726;2022-12-16T13:21:41;1.10;99.90
59007;DHT22;44792;52.760;6.726;2022-12-16T13:24:31;1.20;99.90
59007;DHT22;44792;52.760;6.726;2022-12-16T13:27:17;1.20;99.90
59007;DHT22;44792;52.760;6.726;2022-12-16T13:30:16;1.20;99.90
59007;DHT22;44792;52.760;6.726;2022-12-16T13:33:20;1.20;99.90
59007;DHT22;44792;52.760;6.726;2022-12-16T13:36:05;1.20;99.90
59007;DHT22;44792;52.760;6.726;2022-12-16T13:38:52;1.10;99.90
59007;DHT22;44792;52.760;6.726;2022-12-16T13:53:25;1.20;99.90
59007;DHT22;44792;52.760;6.726;2022-12-16T13:56:13;1.20;99.90
59007;DHT22;44792;52.760;6.726;2022-12-16T13:59:05;1.20;99.90
59007;DHT22;44792;52.760;6.726;2022-12-16T14:01:57;1.30;99.90
59007;DHT22;44792;52.760;6.726;2022-12-16T14:04:50;1.30;99.90
59007;DHT22;44792;52.760;6.726;2022-12-16T14:07:38;1.30;99.90
59007;DHT22;44792;52.760;6.726;2022-12-16T14:10:30;1.30;99.90
59007;DHT22;44792;52.760;6.726;2022-12-16T14:13:30;1.20;99.90
59007;DHT22;44792;52.760;6.726;2022-12-16T14:16:36;1.20;99.90
59007;DHT22;44792;52.760;6.726;2022-12-16T14:19:33;1.20;99.90
59007;DHT22;44792;52.760;6.726;2022-12-16T14:25:19;1.20;99.90
59007;DHT22;44792;52.760;6.726;2022-12-16T14:28:26;1.20;99.90
59007;DHT22;44792;52.760;6.726;2022-12-16T14:37:27;1.10;99.90
59007;DHT22;44792;52.760;6.726;2022-12-16T14:40:27;1.10;99.90
59007;DHT22;44792;52.760;6.726;2022-12-16T14:43:20;1.10;99.90
59007;DHT22;44792;52.760;6.726;2022-12-16T14:46:17;1.20;99.90
59007;DHT22;44792;52.760;6.726;2022-12-16T14:49:26;1.10;99.90
59007;DHT22;44792;52.760;6.726;2022-12-16T14:55:16;1.20;99.90
59007;DHT22;44792;52.760;6.726;2022-12-16T14:58:10;1.20;99.90
59007;DHT22;44792;52.760;6.726;2022-12-16T15:00:57;1.10;99.90
59007;DHT22;44792;52.760;6.726;2022-12-16T15:03:45;1.10;99.90
59007;DHT22;44792;52.760;6.726;2022-12-16T15:06:43;1.20;99.90
59007;DHT22;44792;52.760;6.726;2022-12-16T15:09:32;1.20;99.90
59007;DHT22;44792;52.760;6.726;2022-12-16T15:12:24;1.20;99.90
59007;DHT22;44792;52.760;6.726;2022-12-16T15:15:18;1.20;99.90
59007;DHT22;44792;52.760;6.726;2022-12-16T15:18:03;1.10;99.90
59007;DHT22;44792;52.760;6.726;2022-12-16T15:20:53;1.00;99.90
59007;DHT22;44792;52.760;6.726;2022-12-16T15:23:40;1.00;99.90
59007;DHT22;44792;52.760;6.726;2022-12-16T15:26:27;1.10;99.90
59007;DHT22;44792;52.760;6.726;2022-12-16T15:35:09;0.90;99.90
59007;DHT22;44792;52.760;6.726;2022-12-16T15:37:53;1.00;99.90
59007;DHT22;44792;52.760;6.726;2022-12-16T15:40:39;1.00;99.90
59007;DHT22;44792;52.760;6.726;2022-12-16T15:43:30;0.90;99.90
59007;DHT22;44792;52.760;6.726;2022-12-16T15:46:20;0.90;99.90
59007;DHT22;44792;52.760;6.726;2022-12-16T15:49:29;0.90;99.90
59007;DHT22;44792;52.760;6.726;2022-12-16T15:52:39;0.90;99.90
59007;DHT22;44792;52.760;6.726;2022-12-16T15:55:27;0.90;99.90
59007;DHT22;44792;52.760;6.726;2022-12-16T15:58:33;0.80;99.90
59007;DHT22;44792;52.760;6.726;2022-12-16T16:01:24;1.00;99.90
59007;DHT22;44792;52.760;6.726;2022-12-16T16:04:28;1.00;99.90
59007;DHT22;44792;52.760;6.726;2022-12-16T16:07:18;1.10;99.90
59007;DHT22;44792;52.760;6.726;2022-12-16T16:10:20;1.20;99.90
59007;DHT22;44792;52.760;6.726;2022-12-16T16:13:06;1.20;99.90
59007;DHT22;44792;52.760;6.726;2022-12-16T16:15:51;1.40;99.90
59007;DHT22;44792;52.760;6.726;2022-12-16T16:18:36;1.40;99.90
59007;DHT22;44792;52.760;6.726;2022-12-16T16:21:20;1.40;99.90
59007;DHT22;44792;52.760;6.726;2022-12-16T16:24:04;1.40;99.90
59007;DHT22;44792;52.760;6.726;2022-12-16T16:26:49;1.30;99.90
59007;DHT22;44792;52.760;6.726;2022-12-16T16:29:33;1.40;99.90
59007;DHT22;44792;52.760;6.726;2022-12-16T16:32:17;1.50;99.90
59007;DHT22;44792;52.760;6.726;2022-12-16T16:35:02;1.40;99.90
59007;DHT22;44792;52.760;6.726;2022-12-16T16:37:46;1.40;99.90
59007;DHT22;44792;52.760;6.726;2022-12-16T16:40:34;1.40;99.90
59007;DHT22;44792;52.760;6.726;2022-12-16T16:43:19;1.40;99.90
59007;DHT22;44792;52.760;6.726;2022-12-16T16:46:22;1.40;99.90
59007;DHT22;44792;52.760;6.726;2022-12-16T16:49:12;1.50;99.90
59007;DHT22;44792;52.760;6.726;2022-12-16T16:52:01;1.60;99.90
59007;DHT22;44792;52.760;6.726;2022-12-16T16:54:45;1.60;99.90
59007;DHT22;44792;52.760;6.726;2022-12-16T16:57:33;1.60;99.90
59007;DHT22;44792;52.760;6.726;2022-12-16T17:00:19;1.50;99.90
59007;DHT22;44792;52.760;6.726;2022-12-16T17:03:04;1.50;99.90
59007;DHT22;44792;52.760;6.726;2022-12-16T17:05:48;1.60;99.90
59007;DHT22;44792;52.760;6.726;2022-12-16T17:08:32;1.60;99.90
59007;DHT22;44792;52.760;6.726;2022-12-16T17:11:24;1.50;99.90
59007;DHT22;44792;52.760;6.726;2022-12-16T17:14:14;1.50;99.90
59007;DHT22;44792;52.760;6.726;2022-12-16T17:17:06;1.50;99.90
59007;DHT22;44792;52.760;6.726;2022-12-16T17:19:52;1.50;99.90
59007;DHT22;44792;52.760;6.726;2022-12-16T17:22:36;1.50;99.90
59007;DHT22;44792;52.760;6.726;2022-12-16T17:25:21;1.60;99.90
59007;DHT22;44792;52.760;6.726;2022-12-16T17:28:05;1.60;99.90
59007;DHT22;44792;52.760;6.726;2022-12-16T17:30:49;1.60;99.90
59007;DHT22;44792;52.760;6.726;2022-12-16T17:33:34;1.50;99.90
59007;DHT22;44792;52.760;6.726;2022-12-16T17:36:18;1.60;99.90
59007;DHT22;44792;52.760;6.726;2022-12-16T17:39:03;1.60;99.90
59007;DHT22;44792;52.760;6.726;2022-12-16T17:41:47;1.60;99.90
59007;DHT22;44792;52.760;6.726;2022-12-16T17:44:32;1.50;99.90
59007;DHT22;44792;52.760;6.726;2022-12-16T17:47:16;1.60;99.90
59007;DHT22;44792;52.760;6.726;2022-12-16T17:50:01;1.50;99.90
59007;DHT22;44792;52.760;6.726;2022-12-16T17:52:45;1.50;99.90
59007;DHT22;44792;52.760;6.726;2022-12-16T17:55:30;1.50;99.90
59007;DHT22;44792;52.760;6.726;2022-12-16T17:58:14;1.50;99.90
59007;DHT22;44792;52.760;6.726;2022-12-16T18:01:02;1.40;99.90
59007;DHT22;44792;52.760;6.726;2022-12-16T18:03:47;1.50;99.90
59007;DHT22;44792;52.760;6.726;2022-12-16T18:06:31;1.50;99.90
59007;DHT22;44792;52.760;6.726;2022-12-16T18:09:15;1.40;99.90
59007;DHT22;44792;52.760;6.726;2022-12-16T18:11:59;1.30;99.90
59007;DHT22;44792;52.760;6.726;2022-12-16T18:14:43;1.30;99.90
59007;DHT22;44792;52.760;6.726;2022-12-16T18:17:27;1.30;99.90
59007;DHT22;44792;52.760;6.726;2022-12-16T18:20:12;1.30;99.90
59007;DHT22;44792;52.760;6.726;2022-12-16T18:22:56;1.40;99.90
59007;DHT22;44792;52.760;6.726;2022-12-16T18:25:40;1.40;99.90
59007;DHT22;44792;52.760;6.726;2022-12-16T18:28:25;1.30;99.90
59007;DHT22;44792;52.760;6.726;2022-12-16T18:31:09;1.30;99.90
59007;DHT22;44792;52.760;6.726;2022-12-16T18:33:53;1.30;99.90
59007;DHT22;44792;52.760;6.726;2022-12-16T18:36:37;1.30;99.90
59007;DHT22;44792;52.760;6.726;2022-12-16T18:39:21;1.30;99.90
59007;DHT22;44792;52.760;6.726;2022-12-16T18:42:06;1.30;99.90
59007;DHT22;44792;52.760;6.726;2022-12-16T18:44:51;1.40;99.90
59007;DHT22;44792;52.760;6.726;2022-12-16T18:47:35;1.30;99.90
59007;DHT22;44792;52.760;6.726;2022-12-16T18:50:19;1.30;99.90
59007;DHT22;44792;52.760;6.726;2022-12-16T18:53:03;1.30;99.90
59007;DHT22;44792;52.760;6.726;2022-12-16T18:55:48;1.30;99.90
59007;DHT22;44792;52.760;6.726;2022-12-16T18:58:41;1.30;99.90
59007;DHT22;44792;52.760;6.726;2022-12-16T19:01:25;1.30;99.90
59007;DHT22;44792;52.760;6.726;2022-12-16T19:04:10;1.30;99.90
59007;DHT22;44792;52.760;6.726;2022-12-16T19:06:54;1.30;99.90
59007;DHT22;44792;52.760;6.726;2022-12-16T19:09:38;1.30;99.90
59007;DHT22;44792;52.760;6.726;2022-12-16T19:12:22;1.30;99.90
59007;DHT22;44792;52.760;6.726;2022-12-16T19:15:07;1.20;99.90